Terminal Aerodrome Forecast
Issued by NWS

Home | Current Version | Previous Version | Text Only | Print | Product List | Glossary On
Versions: 1 2 3 4 5 6 7 8 9 10 11 12 13 14 15 16 17 18
000
FTUS46 KMTR 241120
TAFMRY
TAF
KMRY 241120Z 2412/2512 24008KT P6SM OVC015
     FM241800 29008KT P6SM SCT015 BKN060
      TEMPO 2418/2421 BKN018
     FM242200 25011G18KT P6SM SCT025 BKN050
     FM250300 24006KT P6SM VCSH BKN025 OVC030
     FM250600 VRB03KT P6SM VCSH OVC025=

USA.gov is the U.S. government's official web portal to all federal, state and local government web resources and services.